Username
Password
 
Info Terbaru :
  

Jackpot hanya dapat di beli di awal sebelum periode tersebut berjalan dan jika berhasil maka anda dapat melihat di sisi kiri bawah atau kiri atas akan terdapat notifikasi bahwa jackpot anda berhasil di beli.

Jika anda membeli jackpot di tengah permainan maka pembelian jackpot akan berlaku untuk periode selanjutnya.

Jackpot Winner Ceme

Jackpot dilihat dari gabungan kartu pemain dengan kartu bandar. Bandar harus membeli jackpot sebanyak jumlah player yang sedang duduk. Sebagai contoh bila terdapat 3 pemain duduk bermain, dan bandar memutuskan untuk membeli jackpot Rp 1.000, maka pada periode tersebut bandar akan membeli jackpot sebanyak 3xRp1.000 = Rp3.000.

Jackpot bukanlah suatu keharusan untuk dibeli, namun kami memberikan suatu fitur tambahan untuk member tercinta dari www.referral.dewapoker.

Terdapat tiga pilihan harga jackpot yang bisa anda beli yaitu :100,500 dan 1000 rupiah.

Hadiah dari Multi jackpot system www.referral.dewapoker


  • Murni Kecil x 50 harga jackpot yang anda beli.

    (contoh:anda membeli 1000 maka:1000 X 50 = 50.000)

  • Murni Besar x 50 harga jackpot yang anda beli

    (contoh:anda membeli 1000 maka:1000 X 50 = 50.000)

  • BALAK x 200 harga jackpot yang anda beli

    (contoh:anda membeli 1000 maka:1000 X 200 = 200.000)

  • ENAM DEWA x 6666 harga jackpot yang anda beli

    (contoh:anda membeli 1000 maka:1000 X 6666 = 6.666.000)


Demikian adalah penjelasan dari Multi Jackpot www.referral.dewapoker terima kasih dan selamat bermain salam hoki dari kami


Jackpot Winner

TOP ENAM DEWA
No. Tanggal Nama Price Win
1 23/03 11:38 BIG_DADDY murni enam 6,666,000
2 23/03 11:38 FEBY_27 murni enam 3,333,000
3 23/03 11:37 PANDOET murni enam 3,333,000
4 23/03 10:57 BUKKE murni enam 6,666,000
5 23/03 10:57 BLEDEX87 murni enam 6,666,000
TOP BALAK
No. Tanggal Nama Price Win
1 23/03 11:53 KUSREK_101 balak 200,000
2 23/03 11:53 ARISETIA96 balak 200,000
3 23/03 11:52 OREO_66 balak 200,000
4 23/03 11:52 FAUZIAH788 balak 200,000
5 23/03 11:52 WEIHOKYNE balak 200,000
LATEST JACKPOT
No. Tanggal Nama Price Win
1 23/03 11:53 BLEK79 murni besar 25,000
2 23/03 11:53 D79ANYU56714 murni besar 50,000
3 23/03 11:53 MANDRAS68 murni besar 25,000
4 23/03 11:53 KUSREK_101 balak 200,000
5 23/03 11:53 ARISETIA96 balak 200,000
6 23/03 11:53 LAINSING murni kecil 50,000
7 23/03 11:52 IMANGWAE murni kecil 25,000
8 23/03 11:52 D72DASUN murni kecil 50,000
9 23/03 11:52 OREO_66 balak 200,000
10 23/03 11:52 FAUZIAH788 balak 200,000
11 23/03 11:52 WEIHOKYNE balak 200,000
12 23/03 11:52 KIPS_05 murni besar 25,000
13 23/03 11:52 CONGKY44 murni kecil 50,000
14 23/03 11:52 ABADI234 murni kecil 50,000
15 23/03 11:52 DEWAPK99 murni kecil 5,000
16 23/03 11:52 MINHO06 murni kecil 50,000
17 23/03 11:52 JAL3434 balak 200,000
18 23/03 11:52 ALIJEPARA balak 100,000
19 23/03 11:52 DEWADJAWA murni besar 50,000
20 23/03 11:51 P25JUN1994 murni kecil 25,000
21 23/03 11:51 ANAKKEPRET murni kecil 25,000
22 23/03 11:51 ICHAA murni besar 50,000
23 23/03 11:51 OGEGE90 murni besar 5,000
24 23/03 11:51 B18OET892 murni besar 50,000
25 23/03 11:51 LUCKMAN murni besar 50,000
26 23/03 11:51 GRANADA_86 murni kecil 5,000
27 23/03 11:51 MAKRON balak 100,000
28 23/03 11:51 RINJANIANG murni kecil 25,000
29 23/03 11:51 DONNYABIE murni kecil 50,000
30 23/03 11:51 FERDI murni kecil 50,000
31 23/03 11:51 RERE97 murni kecil 5,000
32 23/03 11:51 CAFE69 murni besar 25,000
33 23/03 11:51 QQWE971 murni kecil 50,000
34 23/03 11:50 LECIT01 murni kecil 25,000
35 23/03 11:50 JEBAR90 murni kecil 50,000
36 23/03 11:50 SINS25 murni kecil 50,000
37 23/03 11:50 ENDRA1986 murni besar 50,000
38 23/03 11:50 TEMPALO murni besar 5,000
39 23/03 11:50 VIALIM murni besar 50,000
40 23/03 11:50 NOFRI_9090 murni besar 50,000
41 23/03 11:50 SACU murni besar 25,000
42 23/03 11:50 WEIHOKYNE murni besar 50,000
43 23/03 11:50 BDFD7622 murni besar 5,000
44 23/03 11:50 ABE13 murni kecil 50,000
45 23/03 11:49 PRENGKY1 murni kecil 25,000
46 23/03 11:49 QUICKTEA murni kecil 25,000
47 23/03 11:49 EKOAGEN murni kecil 50,000
48 23/03 11:49 C33EARDO97977 murni besar 5,000
49 23/03 11:49 AHMAD899 murni besar 50,000
50 23/03 11:49 KENKEN55 murni besar 25,000


Situs Poker Online
Dewapoker.com Hadir untuk semua pecinta permainan kartu poker online yang khususnya berada di asia. Dengan system teknology baru dan server kecepatan tinggi akan membuat permainan poker anda lebih seru dan menarik bersama teman2x anda maupun saingan anda. Cukup lakukan login dan langsung bermain tanpa download. Dewapoker.com dengan encrypsi server yang tinggi akan menjamin keamanan data para member.
Terms & Conditions Link Alternatif Cara Bermain Video Dewapoker
© Copyright 2019 Dewa Poker. All right reserved.